URWA 271200Z 01003MPS 9999 OVC010 M02/M04 Q1016 R09/810255 NOSIG RMK QFE764/1019
QNH:(hPa/inHg/mmHg)1016 / 30 / 762
QFE:(hPa/inHg/mmHg)1018 / 30.07 / 764
Temperature-2
Dew Point-4
Visibility> 10000
Weather
Cloud CoverOVC (1000);
Transition Altitude3000 ft.
Transition LevelFL40
SQUAWK